createdAt,value
2019-05-30T00:02:43.999Z,101092.92
2019-05-30T00:05:50.652Z,101090.19
2019-05-30T00:08:54.383Z,101091.45
2019-05-30T00:11:58.619Z,101091.27
2019-05-30T00:15:05.873Z,101091.19
2019-05-30T00:18:09.788Z,101101.85
2019-05-30T00:21:13.374Z,101106.16
2019-05-30T00:24:20.606Z,101104.90
2019-05-30T00:27:27.844Z,101103.97
2019-05-30T00:30:31.781Z,101109.11
2019-05-30T00:33:35.380Z,101104.34
2019-05-30T00:36:39.160Z,101099.72
2019-05-30T00:39:42.692Z,101103.62
2019-05-30T00:42:47.752Z,101106.00
2019-05-30T00:45:51.539Z,101106.78
2019-05-30T00:48:56.264Z,101106.44
2019-05-30T00:52:00.562Z,101109.83
2019-05-30T00:55:07.549Z,101111.27
2019-05-30T00:58:11.380Z,101107.18
2019-05-30T01:01:14.993Z,101107.53
2019-05-30T01:04:18.821Z,101116.22
2019-05-30T01:07:22.432Z,101109.24
2019-05-30T01:10:26.256Z,101105.13
2019-05-30T01:13:29.858Z,101107.18
2019-05-30T01:16:33.422Z,101100.38
2019-05-30T01:19:37.067Z,101101.42
2019-05-30T01:22:40.631Z,101098.01
2019-05-30T01:25:44.244Z,101102.92
2019-05-30T01:28:49.926Z,101104.81
2019-05-30T01:31:53.592Z,101100.91
2019-05-30T01:34:59.584Z,101093.12
2019-05-30T01:38:03.947Z,101091.99
2019-05-30T01:41:08.101Z,101095.78
2019-05-30T01:44:11.724Z,101102.23
2019-05-30T01:47:15.454Z,101102.72
2019-05-30T01:50:19.026Z,101099.47
2019-05-30T01:53:22.765Z,101101.46
2019-05-30T01:56:26.478Z,101103.34
2019-05-30T01:59:30.081Z,101098.45
2019-05-30T02:02:33.644Z,101097.45
2019-05-30T02:05:37.349Z,101097.63
2019-05-30T02:08:40.860Z,101095.42
2019-05-30T02:11:44.457Z,101104.30
2019-05-30T02:14:48.006Z,101111.30
2019-05-30T02:17:51.595Z,101114.52
2019-05-30T02:20:55.115Z,101107.73
2019-05-30T02:23:59.773Z,101108.39
2019-05-30T02:27:04.187Z,101109.92
2019-05-30T02:30:27.139Z,101116.54
2019-05-30T02:33:30.683Z,101111.44
2019-05-30T02:36:34.294Z,101110.09
2019-05-30T02:39:37.936Z,101114.84
2019-05-30T02:42:44.572Z,101112.47
2019-05-30T02:45:48.280Z,101116.89
2019-05-30T02:48:58.981Z,101115.03
2019-05-30T02:51:57.124Z,101111.44
2019-05-30T02:55:01.888Z,101124.03
2019-05-30T02:58:06.592Z,101126.59
2019-05-30T03:01:13.788Z,101129.13
2019-05-30T03:04:16.539Z,101128.61
2019-05-30T03:07:20.565Z,101130.13
2019-05-30T03:10:24.425Z,101143.40
2019-05-30T03:13:28.129Z,101137.61
2019-05-30T03:16:31.768Z,101144.59
2019-05-30T03:19:44.117Z,101146.42
2019-05-30T03:22:47.830Z,101138.61
2019-05-30T03:25:51.404Z,101149.84
2019-05-30T03:28:55.052Z,101154.92
2019-05-30T03:32:33.970Z,101148.31
2019-05-30T03:35:11.051Z,101150.68
2019-05-30T03:38:13.559Z,101153.60
2019-05-30T03:41:16.743Z,101152.22
2019-05-30T03:44:20.334Z,101152.56
2019-05-30T03:47:26.627Z,101157.63
2019-05-30T03:50:31.503Z,101152.54
2019-05-30T03:53:35.757Z,101152.66
2019-05-30T03:56:48.126Z,101151.46
2019-05-30T03:59:54.860Z,101156.21
2019-05-30T04:03:15.434Z,101159.50
2019-05-30T04:06:30.885Z,101162.74
2019-05-30T04:09:36.887Z,101159.11
2019-05-30T04:12:49.258Z,101159.77
2019-05-30T04:15:52.941Z,101161.91
2019-05-30T04:18:56.489Z,101170.56
2019-05-30T04:22:00.111Z,101171.89
2019-05-30T04:25:05.568Z,101172.33
2019-05-30T04:28:09.753Z,101168.61
2019-05-30T04:31:14.487Z,101172.08
2019-05-30T04:34:19.582Z,101169.14
2019-05-30T04:37:23.180Z,101170.77
2019-05-30T04:40:26.860Z,101168.75
2019-05-30T04:43:30.459Z,101169.69
2019-05-30T04:46:34.028Z,101167.74
2019-05-30T04:49:37.683Z,101172.19
2019-05-30T04:52:41.262Z,101171.63
2019-05-30T04:55:44.915Z,101178.05
2019-05-30T04:58:48.490Z,101181.13
2019-05-30T05:01:52.152Z,101183.38
2019-05-30T05:04:55.722Z,101183.51
2019-05-30T05:07:59.314Z,101181.88
2019-05-30T05:11:02.904Z,101173.03
2019-05-30T05:14:06.484Z,101175.35
2019-05-30T05:17:10.210Z,101181.12
2019-05-30T05:20:15.182Z,101171.84
2019-05-30T05:23:19.396Z,101172.95
2019-05-30T05:26:23.638Z,101172.92
2019-05-30T05:29:27.391Z,101170.99
2019-05-30T05:32:31.100Z,101166.16
2019-05-30T05:35:34.710Z,101162.55
2019-05-30T05:38:38.328Z,101167.06
2019-05-30T05:41:42.088Z,101169.12
2019-05-30T05:44:45.783Z,101169.12
2019-05-30T05:47:49.432Z,101168.59
2019-05-30T05:50:53.032Z,101175.52
2019-05-30T05:53:56.596Z,101174.38
2019-05-30T05:57:00.304Z,101171.62
2019-05-30T06:00:06.116Z,101165.78
2019-05-30T06:03:09.812Z,101160.51
2019-05-30T06:06:13.532Z,101163.61
2019-05-30T06:09:18.321Z,101170.80
2019-05-30T06:12:22.075Z,101175.09
2019-05-30T06:15:25.829Z,101170.00
2019-05-30T06:18:29.480Z,101173.00
2019-05-30T06:21:33.171Z,101178.89
2019-05-30T06:24:36.878Z,101174.64
2019-05-30T06:27:40.610Z,101177.11
2019-05-30T06:30:45.406Z,101177.77
2019-05-30T06:33:48.957Z,101171.44
2019-05-30T06:36:52.630Z,101163.50
2019-05-30T06:39:56.272Z,101173.62
2019-05-30T06:42:59.938Z,101170.95
2019-05-30T06:46:05.239Z,101175.80
2019-05-30T06:49:08.925Z,101174.53
2019-05-30T06:52:12.635Z,101179.09
2019-05-30T06:55:16.407Z,101156.73
2019-05-30T06:58:35.360Z,101167.55
2019-05-30T07:01:25.853Z,101165.21
2019-05-30T07:04:50.126Z,101159.13
2019-05-30T07:07:38.383Z,101153.92
2019-05-30T07:10:42.979Z,101153.02
2019-05-30T07:13:46.630Z,101161.04
2019-05-30T07:16:50.328Z,101155.48
2019-05-30T07:19:53.985Z,101154.94
2019-05-30T07:23:00.453Z,101148.07
2019-05-30T07:26:04.380Z,101156.63
2019-05-30T07:29:08.071Z,101151.72
2019-05-30T07:32:14.983Z,101150.23
2019-05-30T07:35:18.718Z,101154.17
2019-05-30T07:38:22.350Z,101162.16
2019-05-30T07:41:28.779Z,101150.80
2019-05-30T07:44:32.873Z,101149.94
2019-05-30T07:47:36.538Z,101159.55
2019-05-30T07:50:40.240Z,101154.10
2019-05-30T07:53:43.931Z,101150.86
2019-05-30T07:56:47.567Z,101142.56
2019-05-30T07:59:51.249Z,101139.95
2019-05-30T08:02:54.891Z,101137.02
2019-05-30T08:05:58.925Z,101147.60
2019-05-30T08:09:02.651Z,101142.55
2019-05-30T08:12:06.434Z,101135.63
2019-05-30T08:15:13.363Z,101133.50
2019-05-30T08:18:17.101Z,101126.05
2019-05-30T08:21:23.602Z,101123.66
2019-05-30T08:24:30.065Z,101126.96
2019-05-30T08:27:34.999Z,101121.78
2019-05-30T08:30:38.830Z,101117.83
2019-05-30T08:33:42.488Z,101117.03
2019-05-30T08:36:46.179Z,101116.77
2019-05-30T08:39:49.813Z,101115.96
2019-05-30T08:42:53.493Z,101120.34
2019-05-30T08:46:00.385Z,101099.99
2019-05-30T08:49:07.217Z,101116.79
2019-05-30T08:52:10.864Z,101116.33
2019-05-30T08:55:15.985Z,101109.60
2019-05-30T08:58:19.704Z,101112.88
2019-05-30T09:01:24.918Z,101109.81
2019-05-30T09:04:28.582Z,101102.70
2019-05-30T09:07:32.239Z,101096.02
2019-05-30T09:10:39.168Z,101114.45
2019-05-30T09:13:44.514Z,101102.16
2019-05-30T09:16:49.605Z,101097.42
2019-05-30T09:19:53.581Z,101092.42
2019-05-30T09:22:57.297Z,101100.95
2019-05-30T09:26:01.004Z,101094.23
2019-05-30T09:29:06.402Z,101085.99
2019-05-30T09:32:10.171Z,101087.52
2019-05-30T09:35:15.729Z,101076.53
2019-05-30T09:38:19.566Z,101076.24
2019-05-30T09:41:23.278Z,101080.13
2019-05-30T09:44:26.981Z,101071.88
2019-05-30T09:47:30.693Z,101060.83
2019-05-30T09:50:34.346Z,101067.56
2019-05-30T09:53:38.020Z,101072.64
2019-05-30T09:56:42.057Z,101072.80
2019-05-30T09:59:48.544Z,101065.36
2019-05-30T10:02:52.728Z,101060.92
2019-05-30T10:05:56.378Z,101062.19
2019-05-30T10:09:00.042Z,101058.26
2019-05-30T10:12:03.710Z,101056.01
2019-05-30T10:15:11.017Z,101051.92
2019-05-30T10:18:14.755Z,101053.63
2019-05-30T10:21:18.409Z,101046.92
2019-05-30T10:24:22.071Z,101051.48
2019-05-30T10:27:25.713Z,101044.56
2019-05-30T10:30:29.729Z,101048.64
2019-05-30T10:33:33.464Z,101050.60
2019-05-30T10:36:44.203Z,101046.47
2019-05-30T10:39:42.768Z,101044.91
2019-05-30T10:42:47.807Z,101040.57
2019-05-30T10:45:51.801Z,101038.14
2019-05-30T10:48:56.749Z,101037.06
2019-05-30T10:52:00.869Z,101035.89
2019-05-30T10:55:06.827Z,101033.59
2019-05-30T10:58:10.469Z,101031.78
2019-05-30T11:01:14.155Z,101023.42
2019-05-30T11:04:17.862Z,101014.75
2019-05-30T11:07:30.690Z,101010.26
2019-05-30T11:10:43.675Z,101004.37
2019-05-30T11:13:47.393Z,101005.71
2019-05-30T11:16:51.729Z,100991.64
2019-05-30T11:19:56.162Z,100986.53
2019-05-30T11:22:59.906Z,100987.71
2019-05-30T11:26:03.544Z,100986.19
2019-05-30T11:29:07.200Z,100993.30
2019-05-30T11:32:10.874Z,100985.02
2019-05-30T11:35:14.655Z,100987.04
2019-05-30T11:38:18.287Z,100978.29
2019-05-30T11:41:21.992Z,100977.31
2019-05-30T11:44:25.641Z,100967.46
2019-05-30T11:47:29.351Z,100967.46
2019-05-30T11:50:33.212Z,100973.44
2019-05-30T11:53:36.980Z,100973.44
2019-05-30T11:56:40.626Z,100957.47
2019-05-30T11:59:44.287Z,100953.39
2019-05-30T12:02:47.922Z,100944.35
2019-05-30T12:05:52.505Z,100944.35
2019-05-30T12:08:56.926Z,100930.90
2019-05-30T12:12:01.432Z,100938.72
2019-05-30T12:15:07.505Z,100941.72
2019-05-30T12:18:11.278Z,100940.05
2019-05-30T12:21:14.974Z,100940.63
2019-05-30T12:24:18.653Z,100934.80
2019-05-30T12:27:22.355Z,100934.90
2019-05-30T12:30:26.410Z,100934.30
2019-05-30T12:33:30.079Z,100934.30
2019-05-30T12:36:33.733Z,100935.96
2019-05-30T12:39:37.401Z,100948.13
2019-05-30T12:42:41.129Z,100939.67
2019-05-30T12:45:44.800Z,100939.06
2019-05-30T12:48:48.425Z,100928.53
2019-05-30T12:51:52.100Z,100927.84
2019-05-30T12:54:56.393Z,100930.00
2019-05-30T12:58:00.762Z,100927.77
2019-05-30T13:01:04.583Z,100916.39
2019-05-30T13:04:08.289Z,100906.91
2019-05-30T13:07:12.027Z,100905.35
2019-05-30T13:10:17.592Z,100904.58
2019-05-30T13:13:21.291Z,100904.58
2019-05-30T13:16:24.975Z,100921.41
2019-05-30T13:19:28.657Z,100919.25
2019-05-30T13:22:32.374Z,100925.82
2019-05-30T13:25:36.123Z,100919.40
2019-05-30T13:28:39.823Z,100916.00
2019-05-30T13:31:43.495Z,100926.94
2019-05-30T13:34:47.152Z,100904.83
2019-05-30T13:37:50.850Z,100913.45
2019-05-30T13:40:54.494Z,100912.36
2019-05-30T13:43:58.181Z,100906.00
2019-05-30T13:47:02.556Z,100905.40
2019-05-30T13:50:13.046Z,100896.62
2019-05-30T13:53:14.446Z,100902.77
2019-05-30T13:56:18.130Z,100909.07
2019-05-30T13:59:21.750Z,100885.31
2019-05-30T14:02:25.417Z,100886.00
2019-05-30T14:05:29.119Z,100885.53
2019-05-30T14:08:41.151Z,100879.70
2019-05-30T14:11:38.169Z,100891.42
2019-05-30T14:14:41.893Z,100883.03
2019-05-30T14:17:45.531Z,100887.80
2019-05-30T14:20:49.323Z,100893.83
2019-05-30T14:23:52.973Z,100886.03
2019-05-30T14:26:56.649Z,100880.36
2019-05-30T14:30:00.311Z,100887.07
2019-05-30T14:33:04.150Z,100892.27
2019-05-30T14:36:11.403Z,100904.79
2019-05-30T14:39:13.333Z,100907.16
2019-05-30T14:42:16.958Z,100902.41
2019-05-30T14:45:20.763Z,100902.00
2019-05-30T14:48:24.425Z,100893.98
2019-05-30T14:51:28.108Z,100900.70
2019-05-30T14:54:31.804Z,100899.03
2019-05-30T14:57:35.580Z,100897.84
2019-05-30T15:00:39.200Z,100905.11
2019-05-30T15:03:42.891Z,100894.53
2019-05-30T15:06:46.530Z,100893.28
2019-05-30T15:09:50.212Z,100884.03
2019-05-30T15:12:54.002Z,100879.37
2019-05-30T15:15:57.733Z,100876.25
2019-05-30T15:19:06.237Z,100879.01
2019-05-30T15:22:09.846Z,100878.78
2019-05-30T15:25:27.650Z,100870.33
2019-05-30T15:28:31.395Z,100871.25
2019-05-30T15:31:35.034Z,100876.98
2019-05-30T15:34:40.301Z,100876.03
2019-05-30T15:37:44.093Z,100869.59
2019-05-30T15:41:11.433Z,100864.87
2019-05-30T15:44:20.899Z,100857.14
2019-05-30T15:48:33.958Z,100862.43
2019-05-30T15:50:36.790Z,100861.29
2019-05-30T15:53:40.504Z,100859.75
2019-05-30T15:56:48.489Z,100860.03
2019-05-30T15:59:51.532Z,100865.58
2019-05-30T16:02:55.195Z,100873.86
2019-05-30T16:05:58.852Z,100866.31
2019-05-30T16:09:02.550Z,100879.45
2019-05-30T16:12:06.204Z,100875.53
2019-05-30T16:15:13.464Z,100857.90
2019-05-30T16:18:19.898Z,100858.98
2019-05-30T16:21:23.715Z,100864.66
2019-05-30T16:24:27.585Z,100861.61
2019-05-30T16:27:31.376Z,100863.77
2019-05-30T16:30:35.089Z,100876.04
2019-05-30T16:33:40.443Z,100867.78
2019-05-30T16:36:46.402Z,100865.66
2019-05-30T16:40:04.682Z,100868.48
2019-05-30T16:42:55.551Z,100864.28
2019-05-30T16:45:59.312Z,100870.91
2019-05-30T16:49:03.029Z,100874.20
2019-05-30T16:52:06.866Z,100869.25
2019-05-30T16:55:15.088Z,100869.64
2019-05-30T16:58:24.180Z,100870.05
2019-05-30T17:01:27.866Z,100876.89
2019-05-30T17:04:33.324Z,100881.14
2019-05-30T17:07:37.110Z,100877.75
2019-05-30T17:10:42.635Z,100877.40
2019-05-30T17:13:48.356Z,100876.56
2019-05-30T17:16:53.660Z,100878.16
2019-05-30T17:20:00.923Z,100880.64
2019-05-30T17:23:07.702Z,100882.48
2019-05-30T17:26:11.332Z,100877.09
2019-05-30T17:29:15.141Z,100888.44
2019-05-30T17:32:19.708Z,100884.84
2019-05-30T17:35:24.123Z,100883.22
2019-05-30T17:38:28.773Z,100892.27
2019-05-30T17:41:32.695Z,100898.24
2019-05-30T17:44:36.346Z,100896.41
2019-05-30T17:47:40.146Z,100904.08
2019-05-30T17:50:43.906Z,100899.66
2019-05-30T17:53:47.681Z,100904.02
2019-05-30T17:56:51.350Z,100908.09
2019-05-30T17:59:55.255Z,100904.36
2019-05-30T18:03:00.603Z,100910.22
2019-05-30T18:06:04.472Z,100906.88
2019-05-30T18:09:11.354Z,100914.66
2019-05-30T18:12:15.176Z,100910.84
2019-05-30T18:15:18.974Z,100906.80
2019-05-30T18:18:23.167Z,100907.73
2019-05-30T18:21:27.482Z,100912.77
2019-05-30T18:24:32.725Z,100913.20
2019-05-30T18:27:36.431Z,100915.44
2019-05-30T18:30:54.991Z,100919.98
2019-05-30T18:33:58.621Z,100916.61
2019-05-30T18:37:05.800Z,100921.31
2019-05-30T18:40:10.075Z,100918.05
2019-05-30T18:43:13.935Z,100923.83
2019-05-30T18:46:17.661Z,100933.16
2019-05-30T18:49:21.334Z,100931.13
2019-05-30T18:52:26.101Z,100933.98
2019-05-30T18:55:30.716Z,100932.17
2019-05-30T18:58:37.599Z,100932.08
2019-05-30T19:01:41.502Z,100931.25
2019-05-30T19:04:45.215Z,100929.47
2019-05-30T19:07:52.152Z,100933.20
2019-05-30T19:10:56.261Z,100936.81
2019-05-30T19:14:00.340Z,100936.16
2019-05-30T19:17:04.059Z,100948.95
2019-05-30T19:20:08.695Z,100947.08
2019-05-30T19:23:12.672Z,100950.82
2019-05-30T19:26:16.381Z,100958.79
2019-05-30T19:29:20.033Z,100960.22
2019-05-30T19:32:23.715Z,100976.48
2019-05-30T19:35:27.374Z,100966.34
2019-05-30T19:38:35.469Z,100967.97
2019-05-30T19:41:53.454Z,100970.13
2019-05-30T19:44:44.635Z,100979.36
2019-05-30T19:47:48.382Z,100978.72
2019-05-30T19:50:52.158Z,100975.67
2019-05-30T19:53:57.284Z,100981.82
2019-05-30T19:57:00.968Z,100989.45
2019-05-30T20:00:07.750Z,100990.02
2019-05-30T20:03:11.534Z,100992.41
2019-05-30T20:06:15.174Z,100995.49
2019-05-30T20:09:18.860Z,100994.26
2019-05-30T20:12:22.654Z,100995.41
2019-05-30T20:15:26.381Z,100991.04
2019-05-30T20:18:31.469Z,100995.23
2019-05-30T20:21:35.729Z,101002.48
2019-05-30T20:24:42.672Z,100995.69
2019-05-30T20:27:46.427Z,100997.84
2019-05-30T20:30:50.323Z,101004.64
2019-05-30T20:33:55.628Z,100994.56
2019-05-30T20:36:59.357Z,101001.21
2019-05-30T20:40:06.397Z,100995.41
2019-05-30T20:43:10.038Z,100998.91
2019-05-30T20:46:22.778Z,101006.44
2019-05-30T20:49:20.784Z,101008.81
2019-05-30T20:52:24.558Z,101002.53
2019-05-30T20:55:30.161Z,101006.22
2019-05-30T20:58:33.829Z,101004.53
2019-05-30T21:01:39.657Z,101002.09
2019-05-30T21:04:43.114Z,101001.25
2019-05-30T21:07:48.480Z,101009.63
2019-05-30T21:10:54.220Z,101004.30
2019-05-30T21:14:00.311Z,100999.79
2019-05-30T21:17:05.796Z,101002.99
2019-05-30T21:20:24.965Z,100997.80
2019-05-30T21:23:28.752Z,101001.68
2019-05-30T21:26:37.266Z,100999.56
2019-05-30T21:29:41.140Z,100994.80
2019-05-30T21:32:46.427Z,100992.13
2019-05-30T21:35:50.503Z,100998.19
2019-05-30T21:38:54.290Z,100999.17
2019-05-30T21:41:58.026Z,100993.77
2019-05-30T21:45:01.775Z,100997.30
2019-05-30T21:48:05.824Z,101003.14
2019-05-30T21:51:10.117Z,101002.36
2019-05-30T21:54:13.927Z,101000.16
2019-05-30T21:57:17.635Z,101005.87
2019-05-30T22:00:48.548Z,101003.98
2019-05-30T22:03:52.271Z,101006.70
2019-05-30T22:06:56.076Z,101011.22
2019-05-30T22:09:59.757Z,101005.10
2019-05-30T22:13:09.585Z,101012.45
2019-05-30T22:16:08.827Z,101008.03
2019-05-30T22:19:12.632Z,101004.88
2019-05-30T22:22:16.383Z,101005.27
2019-05-30T22:25:20.183Z,101009.15
2019-05-30T22:28:23.846Z,101006.02
2019-05-30T22:31:27.616Z,101011.16
2019-05-30T22:34:31.411Z,101011.91
2019-05-30T22:37:35.162Z,101009.26
2019-05-30T22:40:38.845Z,101012.30
2019-05-30T22:43:43.826Z,101014.20
2019-05-30T22:46:50.325Z,101009.92
2019-05-30T22:49:54.220Z,101010.47
2019-05-30T22:52:57.976Z,100999.96
2019-05-30T22:56:01.779Z,101004.41
2019-05-30T22:59:05.443Z,101002.11
2019-05-30T23:02:09.231Z,101001.66
2019-05-30T23:05:13.158Z,100999.36
2019-05-30T23:08:17.132Z,101001.34
2019-05-30T23:11:20.757Z,101004.78
2019-05-30T23:14:24.532Z,101003.95
2019-05-30T23:17:28.416Z,101004.41
2019-05-30T23:20:32.076Z,101006.63
2019-05-30T23:23:35.791Z,101005.53
2019-05-30T23:26:39.614Z,101004.46
2019-05-30T23:29:43.382Z,101007.69
2019-05-30T23:32:48.158Z,101011.77
2019-05-30T23:35:52.335Z,101003.54
2019-05-30T23:38:56.889Z,101006.84
2019-05-30T23:42:00.689Z,100997.98
2019-05-30T23:45:06.441Z,100990.86
2019-05-30T23:48:10.119Z,100993.53
2019-05-30T23:51:13.758Z,100992.02
2019-05-30T23:54:17.539Z,100993.30
2019-05-30T23:57:21.243Z,100992.53
